sensor_id;sensor_type;location;lat;lon;timestamp;temperature;humidity
21759;DHT22;11041;50.854;20.580;2023-04-06T00:00:09;-2.00;99.90
21759;DHT22;11041;50.854;20.580;2023-04-06T00:02:57;-2.00;99.90
21759;DHT22;11041;50.854;20.580;2023-04-06T00:05:23;-2.10;99.90
21759;DHT22;11041;50.854;20.580;2023-04-06T00:07:50;-2.10;99.90
21759;DHT22;11041;50.854;20.580;2023-04-06T00:10:17;-2.10;99.90
21759;DHT22;11041;50.854;20.580;2023-04-06T00:12:43;-2.20;99.90
21759;DHT22;11041;50.854;20.580;2023-04-06T00:15:10;-2.20;99.90
21759;DHT22;11041;50.854;20.580;2023-04-06T00:17:36;-2.20;99.90
21759;DHT22;11041;50.854;20.580;2023-04-06T00:20:03;-2.20;99.90
21759;DHT22;11041;50.854;20.580;2023-04-06T00:22:30;-2.20;99.90
21759;DHT22;11041;50.854;20.580;2023-04-06T00:24:57;-2.20;99.90
21759;DHT22;11041;50.854;20.580;2023-04-06T00:27:23;-2.30;99.90
21759;DHT22;11041;50.854;20.580;2023-04-06T00:29:50;-2.20;99.90
21759;DHT22;11041;50.854;20.580;2023-04-06T00:32:16;-2.20;99.90
21759;DHT22;11041;50.854;20.580;2023-04-06T00:34:43;-2.20;99.90
21759;DHT22;11041;50.854;20.580;2023-04-06T00:37:11;-2.40;99.90
21759;DHT22;11041;50.854;20.580;2023-04-06T00:39:38;-2.40;99.90
21759;DHT22;11041;50.854;20.580;2023-04-06T00:42:13;-2.20;99.90
21759;DHT22;11041;50.854;20.580;2023-04-06T00:44:41;-2.10;99.90
21759;DHT22;11041;50.854;20.580;2023-04-06T00:47:08;-2.10;99.90
21759;DHT22;11041;50.854;20.580;2023-04-06T00:49:35;-2.10;99.90
21759;DHT22;11041;50.854;20.580;2023-04-06T00:52:01;-2.00;99.90
21759;DHT22;11041;50.854;20.580;2023-04-06T00:54:29;-1.90;99.90
21759;DHT22;11041;50.854;20.580;2023-04-06T00:56:56;-1.90;99.90
21759;DHT22;11041;50.854;20.580;2023-04-06T00:59:23;-1.90;99.90
21759;DHT22;11041;50.854;20.580;2023-04-06T01:01:50;-1.80;99.90
21759;DHT22;11041;50.854;20.580;2023-04-06T01:04:17;-1.80;99.90
21759;DHT22;11041;50.854;20.580;2023-04-06T01:06:43;-1.70;99.90
21759;DHT22;11041;50.854;20.580;2023-04-06T01:09:10;-1.80;99.90
21759;DHT22;11041;50.854;20.580;2023-04-06T01:11:36;-1.70;99.90
21759;DHT22;11041;50.854;20.580;2023-04-06T01:14:03;-1.70;99.90
21759;DHT22;11041;50.854;20.580;2023-04-06T01:16:30;-1.70;99.90
21759;DHT22;11041;50.854;20.580;2023-04-06T01:18:56;-1.70;99.90
21759;DHT22;11041;50.854;20.580;2023-04-06T01:21:23;-1.80;99.90
21759;DHT22;11041;50.854;20.580;2023-04-06T01:23:49;-1.80;99.90
21759;DHT22;11041;50.854;20.580;2023-04-06T01:26:16;-1.70;99.90
21759;DHT22;11041;50.854;20.580;2023-04-06T01:28:43;-1.70;99.90
21759;DHT22;11041;50.854;20.580;2023-04-06T01:31:10;-1.60;99.90
21759;DHT22;11041;50.854;20.580;2023-04-06T01:33:37;-1.60;99.90
21759;DHT22;11041;50.854;20.580;2023-04-06T01:36:03;-1.60;99.90
21759;DHT22;11041;50.854;20.580;2023-04-06T01:38:31;-1.60;99.90
21759;DHT22;11041;50.854;20.580;2023-04-06T01:40:57;-1.60;99.90
21759;DHT22;11041;50.854;20.580;2023-04-06T01:43:24;-1.60;99.90
21759;DHT22;11041;50.854;20.580;2023-04-06T01:45:50;-1.60;99.90
21759;DHT22;11041;50.854;20.580;2023-04-06T01:48:17;-1.60;99.90
21759;DHT22;11041;50.854;20.580;2023-04-06T01:50:43;-1.60;99.90
21759;DHT22;11041;50.854;20.580;2023-04-06T01:53:10;-1.60;99.90
21759;DHT22;11041;50.854;20.580;2023-04-06T01:55:36;-1.60;99.90
21759;DHT22;11041;50.854;20.580;2023-04-06T01:58:03;-1.70;99.90
21759;DHT22;11041;50.854;20.580;2023-04-06T02:00:29;-1.70;99.90
21759;DHT22;11041;50.854;20.580;2023-04-06T02:02:56;-1.70;99.90
21759;DHT22;11041;50.854;20.580;2023-04-06T02:05:22;-1.80;99.90
21759;DHT22;11041;50.854;20.580;2023-04-06T02:07:49;-1.80;99.90
21759;DHT22;11041;50.854;20.580;2023-04-06T02:10:15;-1.90;99.90
21759;DHT22;11041;50.854;20.580;2023-04-06T02:12:42;-2.00;99.90
21759;DHT22;11041;50.854;20.580;2023-04-06T02:15:08;-2.10;99.90
21759;DHT22;11041;50.854;20.580;2023-04-06T02:17:36;-2.10;99.90
21759;DHT22;11041;50.854;20.580;2023-04-06T02:20:02;-2.20;99.90
21759;DHT22;11041;50.854;20.580;2023-04-06T02:22:29;-2.20;99.90
21759;DHT22;11041;50.854;20.580;2023-04-06T02:24:55;-2.30;99.90
21759;DHT22;11041;50.854;20.580;2023-04-06T02:27:21;-2.30;99.90
21759;DHT22;11041;50.854;20.580;2023-04-06T02:29:48;-2.40;99.90
21759;DHT22;11041;50.854;20.580;2023-04-06T02:32:15;-2.40;99.90
21759;DHT22;11041;50.854;20.580;2023-04-06T02:34:41;-2.50;99.90
21759;DHT22;11041;50.854;20.580;2023-04-06T02:37:08;-2.50;99.90
21759;DHT22;11041;50.854;20.580;2023-04-06T02:39:34;-2.50;99.90
21759;DHT22;11041;50.854;20.580;2023-04-06T02:42:01;-2.50;99.90
21759;DHT22;11041;50.854;20.580;2023-04-06T02:44:27;-2.50;99.90
21759;DHT22;11041;50.854;20.580;2023-04-06T02:46:54;-2.50;99.90
21759;DHT22;11041;50.854;20.580;2023-04-06T02:49:20;-2.50;99.90
21759;DHT22;11041;50.854;20.580;2023-04-06T02:51:47;-2.50;99.90
21759;DHT22;11041;50.854;20.580;2023-04-06T02:54:14;-2.50;99.90
21759;DHT22;11041;50.854;20.580;2023-04-06T02:56:40;-2.50;99.90
21759;DHT22;11041;50.854;20.580;2023-04-06T02:59:06;-2.50;99.90
21759;DHT22;11041;50.854;20.580;2023-04-06T03:01:33;-2.60;99.90
21759;DHT22;11041;50.854;20.580;2023-04-06T03:03:59;-2.60;99.90
21759;DHT22;11041;50.854;20.580;2023-04-06T03:06:26;-2.60;99.90
21759;DHT22;11041;50.854;20.580;2023-04-06T03:08:53;-2.70;99.90
21759;DHT22;11041;50.854;20.580;2023-04-06T03:11:19;-2.70;99.90
21759;DHT22;11041;50.854;20.580;2023-04-06T03:13:46;-2.70;99.90
21759;DHT22;11041;50.854;20.580;2023-04-06T03:16:13;-2.80;99.90
21759;DHT22;11041;50.854;20.580;2023-04-06T03:18:39;-2.70;99.90
21759;DHT22;11041;50.854;20.580;2023-04-06T03:21:06;-2.70;99.90
21759;DHT22;11041;50.854;20.580;2023-04-06T03:23:32;-2.70;99.90
21759;DHT22;11041;50.854;20.580;2023-04-06T03:25:59;-2.80;99.90
21759;DHT22;11041;50.854;20.580;2023-04-06T03:28:25;-2.80;99.90
21759;DHT22;11041;50.854;20.580;2023-04-06T03:30:52;-2.80;99.90
21759;DHT22;11041;50.854;20.580;2023-04-06T03:33:18;-2.80;99.90
21759;DHT22;11041;50.854;20.580;2023-04-06T03:35:45;-2.80;99.90
21759;DHT22;11041;50.854;20.580;2023-04-06T03:38:11;-2.90;99.90
21759;DHT22;11041;50.854;20.580;2023-04-06T03:40:38;-2.80;99.90
21759;DHT22;11041;50.854;20.580;2023-04-06T03:43:04;-2.80;99.90
21759;DHT22;11041;50.854;20.580;2023-04-06T03:45:31;-2.80;99.90
21759;DHT22;11041;50.854;20.580;2023-04-06T03:47:57;-2.70;99.90
21759;DHT22;11041;50.854;20.580;2023-04-06T03:50:24;-2.70;99.90
21759;DHT22;11041;50.854;20.580;2023-04-06T03:52:51;-2.80;99.90
21759;DHT22;11041;50.854;20.580;2023-04-06T03:55:17;-2.70;99.90
21759;DHT22;11041;50.854;20.580;2023-04-06T03:57:44;-2.60;99.90
21759;DHT22;11041;50.854;20.580;2023-04-06T04:00:11;-2.60;99.90
21759;DHT22;11041;50.854;20.580;2023-04-06T04:02:39;-2.50;99.90
21759;DHT22;11041;50.854;20.580;2023-04-06T04:05:06;-2.40;99.90
21759;DHT22;11041;50.854;20.580;2023-04-06T04:07:32;-2.40;99.90
21759;DHT22;11041;50.854;20.580;2023-04-06T04:09:59;-2.30;99.90
21759;DHT22;11041;50.854;20.580;2023-04-06T04:12:25;-2.20;99.90
21759;DHT22;11041;50.854;20.580;2023-04-06T04:14:52;-2.20;99.90
21759;DHT22;11041;50.854;20.580;2023-04-06T04:17:21;-2.10;99.90
21759;DHT22;11041;50.854;20.580;2023-04-06T04:19:48;-2.00;99.90
21759;DHT22;11041;50.854;20.580;2023-04-06T04:22:14;-1.90;99.90
21759;DHT22;11041;50.854;20.580;2023-04-06T04:24:40;-1.80;99.90
21759;DHT22;11041;50.854;20.580;2023-04-06T04:27:07;-1.80;99.90
21759;DHT22;11041;50.854;20.580;2023-04-06T04:29:34;-1.80;99.90
21759;DHT22;11041;50.854;20.580;2023-04-06T04:32:00;-1.70;99.90
21759;DHT22;11041;50.854;20.580;2023-04-06T04:34:28;-1.70;99.90
21759;DHT22;11041;50.854;20.580;2023-04-06T04:36:54;-1.70;99.90
21759;DHT22;11041;50.854;20.580;2023-04-06T04:39:21;-1.60;99.90
21759;DHT22;11041;50.854;20.580;2023-04-06T04:41:47;-1.60;99.90
21759;DHT22;11041;50.854;20.580;2023-04-06T04:44:14;-1.60;99.90
21759;DHT22;11041;50.854;20.580;2023-04-06T04:46:41;-1.60;99.90
21759;DHT22;11041;50.854;20.580;2023-04-06T04:49:08;-1.60;99.90
21759;DHT22;11041;50.854;20.580;2023-04-06T04:51:34;-1.50;99.90
21759;DHT22;11041;50.854;20.580;2023-04-06T04:54:02;-1.50;99.90
21759;DHT22;11041;50.854;20.580;2023-04-06T04:56:29;-1.50;99.90
21759;DHT22;11041;50.854;20.580;2023-04-06T04:58:56;-1.50;99.90
21759;DHT22;11041;50.854;20.580;2023-04-06T05:01:22;-1.50;99.90
21759;DHT22;11041;50.854;20.580;2023-04-06T05:03:49;-1.60;99.90
21759;DHT22;11041;50.854;20.580;2023-04-06T05:06:15;-1.60;99.90
21759;DHT22;11041;50.854;20.580;2023-04-06T05:08:43;-1.50;99.90
21759;DHT22;11041;50.854;20.580;2023-04-06T05:11:09;-1.50;99.90
21759;DHT22;11041;50.854;20.580;2023-04-06T05:13:36;-1.50;99.90
21759;DHT22;11041;50.854;20.580;2023-04-06T05:16:03;-1.40;99.90
21759;DHT22;11041;50.854;20.580;2023-04-06T05:18:30;-1.40;99.90
21759;DHT22;11041;50.854;20.580;2023-04-06T05:20:56;-1.50;99.90
21759;DHT22;11041;50.854;20.580;2023-04-06T05:23:23;-1.40;99.90
21759;DHT22;11041;50.854;20.580;2023-04-06T05:25:49;-1.40;99.90
21759;DHT22;11041;50.854;20.580;2023-04-06T05:28:17;-1.40;99.90
21759;DHT22;11041;50.854;20.580;2023-04-06T05:30:44;-1.30;99.90
21759;DHT22;11041;50.854;20.580;2023-04-06T05:33:12;-1.30;99.90
21759;DHT22;11041;50.854;20.580;2023-04-06T05:35:39;-1.20;99.90
21759;DHT22;11041;50.854;20.580;2023-04-06T05:38:08;-1.10;99.90
21759;DHT22;11041;50.854;20.580;2023-04-06T05:40:39;-1.10;99.90
21759;DHT22;11041;50.854;20.580;2023-04-06T05:43:10;-1.00;99.90
21759;DHT22;11041;50.854;20.580;2023-04-06T05:45:37;-0.90;99.90
21759;DHT22;11041;50.854;20.580;2023-04-06T05:48:04;-0.90;99.90
21759;DHT22;11041;50.854;20.580;2023-04-06T05:50:31;-0.90;99.90
21759;DHT22;11041;50.854;20.580;2023-04-06T05:52:58;-0.80;99.90
21759;DHT22;11041;50.854;20.580;2023-04-06T05:55:25;-0.70;99.90
21759;DHT22;11041;50.854;20.580;2023-04-06T05:57:54;-0.60;99.90
21759;DHT22;11041;50.854;20.580;2023-04-06T06:00:21;-0.50;99.90
21759;DHT22;11041;50.854;20.580;2023-04-06T06:02:47;-0.40;99.90
21759;DHT22;11041;50.854;20.580;2023-04-06T06:05:14;-0.40;99.90
21759;DHT22;11041;50.854;20.580;2023-04-06T06:07:42;-0.40;99.90
21759;DHT22;11041;50.854;20.580;2023-04-06T06:10:09;-0.30;99.90
21759;DHT22;11041;50.854;20.580;2023-04-06T06:12:37;-0.30;99.90
21759;DHT22;11041;50.854;20.580;2023-04-06T06:15:04;-0.30;99.90
21759;DHT22;11041;50.854;20.580;2023-04-06T06:17:32;-0.20;99.90
21759;DHT22;11041;50.854;20.580;2023-04-06T06:19:58;-0.10;99.90
21759;DHT22;11041;50.854;20.580;2023-04-06T06:22:26;0.00;99.90
21759;DHT22;11041;50.854;20.580;2023-04-06T06:24:53;0.00;99.90
21759;DHT22;11041;50.854;20.580;2023-04-06T06:27:22;0.10;99.90
21759;DHT22;11041;50.854;20.580;2023-04-06T06:29:51;0.10;99.90
21759;DHT22;11041;50.854;20.580;2023-04-06T06:32:18;0.30;99.90
21759;DHT22;11041;50.854;20.580;2023-04-06T06:34:46;0.30;99.90
21759;DHT22;11041;50.854;20.580;2023-04-06T06:37:13;0.40;99.90
21759;DHT22;11041;50.854;20.580;2023-04-06T06:39:40;0.40;99.90
21759;DHT22;11041;50.854;20.580;2023-04-06T06:42:07;0.50;99.90
21759;DHT22;11041;50.854;20.580;2023-04-06T06:44:34;0.50;99.90
21759;DHT22;11041;50.854;20.580;2023-04-06T06:47:02;0.50;99.90
21759;DHT22;11041;50.854;20.580;2023-04-06T06:49:32;0.60;99.90
21759;DHT22;11041;50.854;20.580;2023-04-06T06:51:59;0.60;99.90
21759;DHT22;11041;50.854;20.580;2023-04-06T06:54:26;0.60;99.90
21759;DHT22;11041;50.854;20.580;2023-04-06T06:56:54;0.70;99.90
21759;DHT22;11041;50.854;20.580;2023-04-06T06:59:21;0.70;99.90
21759;DHT22;11041;50.854;20.580;2023-04-06T07:01:50;0.80;99.90
21759;DHT22;11041;50.854;20.580;2023-04-06T07:04:18;0.80;99.90
21759;DHT22;11041;50.854;20.580;2023-04-06T07:06:45;0.90;99.90
21759;DHT22;11041;50.854;20.580;2023-04-06T07:09:12;0.90;99.90
21759;DHT22;11041;50.854;20.580;2023-04-06T07:11:41;1.10;99.90
21759;DHT22;11041;50.854;20.580;2023-04-06T07:14:07;1.10;99.90
21759;DHT22;11041;50.854;20.580;2023-04-06T07:16:34;1.20;99.90
21759;DHT22;11041;50.854;20.580;2023-04-06T07:19:01;1.30;99.90
21759;DHT22;11041;50.854;20.580;2023-04-06T07:21:29;1.30;99.90
21759;DHT22;11041;50.854;20.580;2023-04-06T07:23:55;1.40;99.90
21759;DHT22;11041;50.854;20.580;2023-04-06T07:26:22;1.40;99.90
21759;DHT22;11041;50.854;20.580;2023-04-06T07:28:49;1.50;99.90
21759;DHT22;11041;50.854;20.580;2023-04-06T07:31:17;1.50;99.90
21759;DHT22;11041;50.854;20.580;2023-04-06T07:33:44;1.50;99.90
21759;DHT22;11041;50.854;20.580;2023-04-06T07:36:11;1.50;99.90
21759;DHT22;11041;50.854;20.580;2023-04-06T07:38:38;1.50;99.90
21759;DHT22;11041;50.854;20.580;2023-04-06T07:41:05;1.50;99.90
21759;DHT22;11041;50.854;20.580;2023-04-06T07:43:34;1.50;99.90
21759;DHT22;11041;50.854;20.580;2023-04-06T07:46:03;1.50;99.90
21759;DHT22;11041;50.854;20.580;2023-04-06T07:48:29;1.60;99.90
21759;DHT22;11041;50.854;20.580;2023-04-06T07:51:04;1.60;99.90
21759;DHT22;11041;50.854;20.580;2023-04-06T07:53:32;1.60;99.90
21759;DHT22;11041;50.854;20.580;2023-04-06T07:56:00;1.70;99.90
21759;DHT22;11041;50.854;20.580;2023-04-06T07:58:27;1.80;99.90
21759;DHT22;11041;50.854;20.580;2023-04-06T08:00:54;1.90;99.90
21759;DHT22;11041;50.854;20.580;2023-04-06T08:03:22;1.70;99.90
21759;DHT22;11041;50.854;20.580;2023-04-06T08:05:54;1.60;99.90
21759;DHT22;11041;50.854;20.580;2023-04-06T08:08:22;1.80;99.90
21759;DHT22;11041;50.854;20.580;2023-04-06T08:10:49;2.00;99.90
21759;DHT22;11041;50.854;20.580;2023-04-06T08:13:16;2.00;99.90
21759;DHT22;11041;50.854;20.580;2023-04-06T08:15:43;1.90;99.90
21759;DHT22;11041;50.854;20.580;2023-04-06T08:18:12;2.00;99.90
21759;DHT22;11041;50.854;20.580;2023-04-06T08:20:40;2.00;99.90
21759;DHT22;11041;50.854;20.580;2023-04-06T08:23:08;2.00;99.90
21759;DHT22;11041;50.854;20.580;2023-04-06T08:25:36;1.80;99.90
21759;DHT22;11041;50.854;20.580;2023-04-06T08:28:03;1.90;99.90
21759;DHT22;11041;50.854;20.580;2023-04-06T08:30:31;2.00;99.90
21759;DHT22;11041;50.854;20.580;2023-04-06T08:32:58;1.90;99.90
21759;DHT22;11041;50.854;20.580;2023-04-06T08:35:26;1.90;99.90
21759;DHT22;11041;50.854;20.580;2023-04-06T08:37:53;1.90;99.90
21759;DHT22;11041;50.854;20.580;2023-04-06T08:40:20;1.70;99.90
21759;DHT22;11041;50.854;20.580;2023-04-06T08:42:56;1.60;99.90
21759;DHT22;11041;50.854;20.580;2023-04-06T08:45:30;1.50;99.90
21759;DHT22;11041;50.854;20.580;2023-04-06T08:47:57;1.60;99.90
21759;DHT22;11041;50.854;20.580;2023-04-06T08:50:29;1.50;99.90
21759;DHT22;11041;50.854;20.580;2023-04-06T08:52:57;1.40;99.90
21759;DHT22;11041;50.854;20.580;2023-04-06T08:55:25;1.30;99.90
21759;DHT22;11041;50.854;20.580;2023-04-06T08:57:53;1.30;99.90
21759;DHT22;11041;50.854;20.580;2023-04-06T09:00:22;1.30;99.90
21759;DHT22;11041;50.854;20.580;2023-04-06T09:02:52;1.30;99.90
21759;DHT22;11041;50.854;20.580;2023-04-06T09:05:24;1.30;99.90
21759;DHT22;11041;50.854;20.580;2023-04-06T09:07:51;1.30;99.90
21759;DHT22;11041;50.854;20.580;2023-04-06T09:10:18;1.30;99.90
21759;DHT22;11041;50.854;20.580;2023-04-06T09:12:46;1.30;99.90
21759;DHT22;11041;50.854;20.580;2023-04-06T09:15:21;1.30;99.90
21759;DHT22;11041;50.854;20.580;2023-04-06T09:17:47;1.40;99.90
21759;DHT22;11041;50.854;20.580;2023-04-06T09:20:14;1.50;99.90
21759;DHT22;11041;50.854;20.580;2023-04-06T09:22:40;1.40;99.90
21759;DHT22;11041;50.854;20.580;2023-04-06T09:25:19;1.20;99.90
21759;DHT22;11041;50.854;20.580;2023-04-06T09:28:01;1.30;99.90
21759;DHT22;11041;50.854;20.580;2023-04-06T09:30:30;1.20;99.90
21759;DHT22;11041;50.854;20.580;2023-04-06T09:32:57;1.40;99.90
21759;DHT22;11041;50.854;20.580;2023-04-06T09:35:25;1.30;99.90
21759;DHT22;11041;50.854;20.580;2023-04-06T09:37:54;1.30;99.90
21759;DHT22;11041;50.854;20.580;2023-04-06T09:40:21;1.30;99.90
21759;DHT22;11041;50.854;20.580;2023-04-06T09:42:49;1.20;99.90
21759;DHT22;11041;50.854;20.580;2023-04-06T09:45:18;1.20;99.90
21759;DHT22;11041;50.854;20.580;2023-04-06T09:47:46;1.20;99.90
21759;DHT22;11041;50.854;20.580;2023-04-06T09:50:14;1.20;99.90
21759;DHT22;11041;50.854;20.580;2023-04-06T09:52:50;1.20;99.90
21759;DHT22;11041;50.854;20.580;2023-04-06T09:55:40;1.20;99.90
21759;DHT22;11041;50.854;20.580;2023-04-06T09:58:18;1.20;99.90
21759;DHT22;11041;50.854;20.580;2023-04-06T10:01:12;1.20;99.90
21759;DHT22;11041;50.854;20.580;2023-04-06T10:06:59;1.40;99.90
21759;DHT22;11041;50.854;20.580;2023-04-06T10:09:29;1.30;99.90
21759;DHT22;11041;50.854;20.580;2023-04-06T10:12:05;1.30;99.90
21759;DHT22;11041;50.854;20.580;2023-04-06T10:14:35;1.40;99.90
21759;DHT22;11041;50.854;20.580;2023-04-06T10:17:05;1.50;99.90
21759;DHT22;11041;50.854;20.580;2023-04-06T10:19:54;1.40;99.90
21759;DHT22;11041;50.854;20.580;2023-04-06T10:22:55;1.40;99.90
21759;DHT22;11041;50.854;20.580;2023-04-06T10:26:05;1.40;99.90
21759;DHT22;11041;50.854;20.580;2023-04-06T10:28:53;1.50;99.90
21759;DHT22;11041;50.854;20.580;2023-04-06T10:31:42;1.50;99.90
21759;DHT22;11041;50.854;20.580;2023-04-06T10:34:17;1.50;99.90
21759;DHT22;11041;50.854;20.580;2023-04-06T10:37:21;1.50;99.90
21759;DHT22;11041;50.854;20.580;2023-04-06T10:40:04;1.40;99.90
21759;DHT22;11041;50.854;20.580;2023-04-06T10:42:37;1.40;99.90
21759;DHT22;11041;50.854;20.580;2023-04-06T10:45:18;1.40;99.90
21759;DHT22;11041;50.854;20.580;2023-04-06T10:47:49;1.40;99.90
21759;DHT22;11041;50.854;20.580;2023-04-06T10:50:18;1.40;99.90
21759;DHT22;11041;50.854;20.580;2023-04-06T10:52:46;1.40;99.90
21759;DHT22;11041;50.854;20.580;2023-04-06T10:55:14;1.40;99.90
21759;DHT22;11041;50.854;20.580;2023-04-06T10:57:41;1.30;99.90
21759;DHT22;11041;50.854;20.580;2023-04-06T11:00:11;1.30;99.90
21759;DHT22;11041;50.854;20.580;2023-04-06T11:02:41;1.20;99.90
21759;DHT22;11041;50.854;20.580;2023-04-06T11:05:23;1.30;99.90
21759;DHT22;11041;50.854;20.580;2023-04-06T11:07:49;1.30;99.90
21759;DHT22;11041;50.854;20.580;2023-04-06T11:10:23;1.30;99.90
21759;DHT22;11041;50.854;20.580;2023-04-06T11:12:57;1.30;99.90
21759;DHT22;11041;50.854;20.580;2023-04-06T11:15:23;1.30;99.90
21759;DHT22;11041;50.854;20.580;2023-04-06T11:17:50;1.30;99.90
21759;DHT22;11041;50.854;20.580;2023-04-06T11:20:17;1.30;99.90
21759;DHT22;11041;50.854;20.580;2023-04-06T11:22:52;1.30;99.90
21759;DHT22;11041;50.854;20.580;2023-04-06T11:25:31;1.30;99.90
21759;DHT22;11041;50.854;20.580;2023-04-06T11:27:58;1.50;99.90
21759;DHT22;11041;50.854;20.580;2023-04-06T11:30:24;1.50;99.90
21759;DHT22;11041;50.854;20.580;2023-04-06T11:32:51;1.40;99.90
21759;DHT22;11041;50.854;20.580;2023-04-06T11:35:24;1.40;99.90
21759;DHT22;11041;50.854;20.580;2023-04-06T11:37:51;1.50;99.90
21759;DHT22;11041;50.854;20.580;2023-04-06T11:40:24;1.40;99.90
21759;DHT22;11041;50.854;20.580;2023-04-06T11:42:57;1.40;99.90
21759;DHT22;11041;50.854;20.580;2023-04-06T11:45:24;1.40;99.90
21759;DHT22;11041;50.854;20.580;2023-04-06T11:47:59;1.40;99.90
21759;DHT22;11041;50.854;20.580;2023-04-06T11:50:32;1.50;99.90
21759;DHT22;11041;50.854;20.580;2023-04-06T11:53:01;1.40;99.90
21759;DHT22;11041;50.854;20.580;2023-04-06T11:55:37;1.40;99.90
21759;DHT22;11041;50.854;20.580;2023-04-06T11:58:05;1.40;99.90
21759;DHT22;11041;50.854;20.580;2023-04-06T12:00:32;1.40;99.90
21759;DHT22;11041;50.854;20.580;2023-04-06T12:03:01;1.40;99.90
21759;DHT22;11041;50.854;20.580;2023-04-06T12:05:28;1.40;99.90
21759;DHT22;11041;50.854;20.580;2023-04-06T12:07:54;1.50;99.90
21759;DHT22;11041;50.854;20.580;2023-04-06T12:10:21;1.50;99.90
21759;DHT22;11041;50.854;20.580;2023-04-06T12:12:48;1.50;99.90
21759;DHT22;11041;50.854;20.580;2023-04-06T12:15:14;1.50;99.90
21759;DHT22;11041;50.854;20.580;2023-04-06T12:17:41;1.50;99.90
21759;DHT22;11041;50.854;20.580;2023-04-06T12:20:08;1.50;99.90
21759;DHT22;11041;50.854;20.580;2023-04-06T12:22:34;1.50;99.90
21759;DHT22;11041;50.854;20.580;2023-04-06T12:25:02;1.50;99.90
21759;DHT22;11041;50.854;20.580;2023-04-06T12:27:29;1.60;99.90
21759;DHT22;11041;50.854;20.580;2023-04-06T12:29:56;1.50;99.90
21759;DHT22;11041;50.854;20.580;2023-04-06T12:32:22;1.50;99.90
21759;DHT22;11041;50.854;20.580;2023-04-06T12:34:50;1.50;99.90
21759;DHT22;11041;50.854;20.580;2023-04-06T12:37:19;1.50;99.90
21759;DHT22;11041;50.854;20.580;2023-04-06T12:39:48;1.40;99.90
21759;DHT22;11041;50.854;20.580;2023-04-06T12:42:15;1.60;99.90
21759;DHT22;11041;50.854;20.580;2023-04-06T12:44:42;1.50;99.90
21759;DHT22;11041;50.854;20.580;2023-04-06T12:47:08;1.50;99.90
21759;DHT22;11041;50.854;20.580;2023-04-06T12:49:35;1.50;99.90
21759;DHT22;11041;50.854;20.580;2023-04-06T12:52:02;1.50;99.90
21759;DHT22;11041;50.854;20.580;2023-04-06T12:54:29;1.40;99.90
21759;DHT22;11041;50.854;20.580;2023-04-06T12:56:55;1.50;99.90
21759;DHT22;11041;50.854;20.580;2023-04-06T12:59:22;1.50;99.90
21759;DHT22;11041;50.854;20.580;2023-04-06T13:01:50;1.50;99.90
21759;DHT22;11041;50.854;20.580;2023-04-06T13:04:18;1.50;99.90
21759;DHT22;11041;50.854;20.580;2023-04-06T13:06:44;1.50;99.90
21759;DHT22;11041;50.854;20.580;2023-04-06T13:09:11;1.50;99.90
21759;DHT22;11041;50.854;20.580;2023-04-06T13:11:37;1.50;99.90
21759;DHT22;11041;50.854;20.580;2023-04-06T13:14:05;1.50;99.90
21759;DHT22;11041;50.854;20.580;2023-04-06T13:16:31;1.50;99.90
21759;DHT22;11041;50.854;20.580;2023-04-06T13:18:58;1.40;99.90
21759;DHT22;11041;50.854;20.580;2023-04-06T13:21:25;1.40;99.90
21759;DHT22;11041;50.854;20.580;2023-04-06T13:23:51;1.50;99.90
21759;DHT22;11041;50.854;20.580;2023-04-06T13:26:17;1.50;99.90
21759;DHT22;11041;50.854;20.580;2023-04-06T13:28:44;1.50;99.90
21759;DHT22;11041;50.854;20.580;2023-04-06T13:31:10;1.50;99.90
21759;DHT22;11041;50.854;20.580;2023-04-06T13:33:38;1.50;99.90
21759;DHT22;11041;50.854;20.580;2023-04-06T13:36:07;1.50;99.90
21759;DHT22;11041;50.854;20.580;2023-04-06T13:38:34;1.40;99.90
21759;DHT22;11041;50.854;20.580;2023-04-06T13:41:00;1.40;99.90
21759;DHT22;11041;50.854;20.580;2023-04-06T13:43:27;1.40;99.90
21759;DHT22;11041;50.854;20.580;2023-04-06T13:45:54;1.40;99.90
21759;DHT22;11041;50.854;20.580;2023-04-06T13:48:22;1.40;99.90
21759;DHT22;11041;50.854;20.580;2023-04-06T13:50:48;1.40;99.90
21759;DHT22;11041;50.854;20.580;2023-04-06T13:53:18;1.30;99.90
21759;DHT22;11041;50.854;20.580;2023-04-06T13:55:52;1.40;99.90
21759;DHT22;11041;50.854;20.580;2023-04-06T13:58:21;1.40;99.90
21759;DHT22;11041;50.854;20.580;2023-04-06T14:00:48;1.30;99.90
21759;DHT22;11041;50.854;20.580;2023-04-06T14:03:15;1.40;99.90
21759;DHT22;11041;50.854;20.580;2023-04-06T14:05:42;1.40;99.90
21759;DHT22;11041;50.854;20.580;2023-04-06T14:08:08;1.40;99.90
21759;DHT22;11041;50.854;20.580;2023-04-06T14:10:41;1.40;99.90
21759;DHT22;11041;50.854;20.580;2023-04-06T14:13:08;1.40;99.90
21759;DHT22;11041;50.854;20.580;2023-04-06T14:15:35;1.30;99.90
21759;DHT22;11041;50.854;20.580;2023-04-06T14:18:01;1.40;99.90
21759;DHT22;11041;50.854;20.580;2023-04-06T14:20:31;1.40;99.90
21759;DHT22;11041;50.854;20.580;2023-04-06T14:23:02;1.50;99.90
21759;DHT22;11041;50.854;20.580;2023-04-06T14:25:30;1.40;99.90
21759;DHT22;11041;50.854;20.580;2023-04-06T14:28:01;1.50;99.90
21759;DHT22;11041;50.854;20.580;2023-04-06T14:30:29;1.50;99.90
21759;DHT22;11041;50.854;20.580;2023-04-06T14:32:57;1.40;99.90
21759;DHT22;11041;50.854;20.580;2023-04-06T14:35:24;1.50;99.90
21759;DHT22;11041;50.854;20.580;2023-04-06T14:37:51;1.50;99.90
21759;DHT22;11041;50.854;20.580;2023-04-06T14:40:17;1.40;99.90
21759;DHT22;11041;50.854;20.580;2023-04-06T14:42:44;1.50;99.90
21759;DHT22;11041;50.854;20.580;2023-04-06T14:45:11;1.50;99.90
21759;DHT22;11041;50.854;20.580;2023-04-06T14:47:37;1.50;99.90
21759;DHT22;11041;50.854;20.580;2023-04-06T14:50:04;1.50;99.90
21759;DHT22;11041;50.854;20.580;2023-04-06T14:52:31;1.50;99.90
21759;DHT22;11041;50.854;20.580;2023-04-06T14:54:58;1.50;99.90
21759;DHT22;11041;50.854;20.580;2023-04-06T14:57:25;1.50;99.90
21759;DHT22;11041;50.854;20.580;2023-04-06T14:59:53;1.60;99.90
21759;DHT22;11041;50.854;20.580;2023-04-06T15:02:20;1.60;99.90
21759;DHT22;11041;50.854;20.580;2023-04-06T15:04:47;1.60;99.90
21759;DHT22;11041;50.854;20.580;2023-04-06T15:07:13;1.60;99.90
21759;DHT22;11041;50.854;20.580;2023-04-06T15:09:41;1.70;99.90
21759;DHT22;11041;50.854;20.580;2023-04-06T15:12:07;1.60;99.90
21759;DHT22;11041;50.854;20.580;2023-04-06T15:14:34;1.60;99.90
21759;DHT22;11041;50.854;20.580;2023-04-06T15:17:02;1.70;99.90
21759;DHT22;11041;50.854;20.580;2023-04-06T15:19:29;1.70;99.90
21759;DHT22;11041;50.854;20.580;2023-04-06T15:21:56;1.70;99.90
21759;DHT22;11041;50.854;20.580;2023-04-06T15:24:22;1.70;99.90
21759;DHT22;11041;50.854;20.580;2023-04-06T15:26:48;1.70;99.90
21759;DHT22;11041;50.854;20.580;2023-04-06T15:29:16;1.70;99.90
21759;DHT22;11041;50.854;20.580;2023-04-06T15:31:42;1.70;99.90
21759;DHT22;11041;50.854;20.580;2023-04-06T15:34:09;1.70;99.90